Aeroporto :
LOGIN :

Iscrizione | Disclaimer

   EN    FR    IT 

 










Sommario :    VFR   VFR Marginale   IFR   IFR Intensivo   IFR Molto Intensivo
Visibilità : 
Base nubi : 
>= 8 km
>= 3000ft
5 / 8 km
1000 / 3000 ft
1500m / 5 km
500 / 1000 ft
800 / 1500m
200 / 500 ft
< 800m
< 200 ft
Simboli :   Temporali  Nebbia  Neve Forte  Precipitazioni Forti  Vento > 20 kt
SIGMETs :   Varie  Temporali  Ghiacco  Turbolenza  Onda orograficha  Ceneri Vulcaniche






- Altitudine del aeroporto : 433 ft
- Codice IATA : CCF


LFMK - Carcassonne

ULTIMO METAR :
  • 011200Z AUTO 09015G25KT 070V130 9999 OVC026 12/06 Q1016 NOSIG

METARs OBSOLETI :
  • 011130Z AUTO 10014KT 070V140 9999 OVC026 12/06 Q1016 BECMG 09015G25KT
  • 011100Z AUTO 10015G25KT 080V150 9999 OVC025 12/06 Q1017 NOSIG
  • 011030Z AUTO 09016G26KT 070V140 9999 OVC025 12/06 Q1017 NOSIG
  • 011000Z AUTO 09016G28KT 070V150 9999 OVC024 12/07 Q1017 NOSIG
  • 010930Z AUTO 09015KT 070V130 9999 OVC021 11/08 Q1017 BECMG 09015G25KT

TAF TAF LFMK
Valido dal 01 a 09 ore il 02 a 09 ore UTC


010800Z 0109/0209 09015G25KT 9999 FEW015 BKN030
TEMPO 0109/0112 BKN015
BECMG 0119/0122 09010KT
TEMPO 0122/0206 BKN015 FEW025TCU



MetMap, La meteo Aeronautica in un colpo d'occhio ! - Copyright ORBIFLY Dicembre 2007 - Disclaimer

ORBIFLY MET'MAP TEAM :

Programmazione e sviluppo : Alexandra Zaïnal
Concezione : Baudouin d'Aumeries
Aiuto per la programmazione : Marc-Olivier Méhu
Supporto tecnico e logistico : Manuel Goepfert
Aiuto per la traduzione : Arnaldo La Scala

Contatto : metmap@orbifly.com




FONTI E CREDITI :

   NOAA